sensor_id;sensor_type;location;lat;lon;timestamp;temperature;humidity
21090;DHT22;10703;51.020;6.128;2022-07-31T00:00:37;20.40;99.90
21090;DHT22;10703;51.020;6.128;2022-07-31T00:03:04;20.40;99.90
21090;DHT22;10703;51.020;6.128;2022-07-31T00:05:30;20.50;99.90
21090;DHT22;10703;51.020;6.128;2022-07-31T00:08:04;20.50;99.90
21090;DHT22;10703;51.020;6.128;2022-07-31T00:10:30;20.50;99.90
21090;DHT22;10703;51.020;6.128;2022-07-31T00:12:57;20.50;99.90
21090;DHT22;10703;51.020;6.128;2022-07-31T00:15:24;20.50;99.90
21090;DHT22;10703;51.020;6.128;2022-07-31T00:17:50;20.40;99.90
21090;DHT22;10703;51.020;6.128;2022-07-31T00:20:18;20.20;99.90
21090;DHT22;10703;51.020;6.128;2022-07-31T00:22:46;20.10;99.90
21090;DHT22;10703;51.020;6.128;2022-07-31T00:25:14;20.10;99.90
21090;DHT22;10703;51.020;6.128;2022-07-31T00:27:42;20.00;99.90
21090;DHT22;10703;51.020;6.128;2022-07-31T00:30:09;19.90;99.90
21090;DHT22;10703;51.020;6.128;2022-07-31T00:32:38;19.90;99.90
21090;DHT22;10703;51.020;6.128;2022-07-31T00:35:05;20.00;99.90
21090;DHT22;10703;51.020;6.128;2022-07-31T00:37:37;19.80;99.90
21090;DHT22;10703;51.020;6.128;2022-07-31T00:40:06;19.90;99.90
21090;DHT22;10703;51.020;6.128;2022-07-31T00:42:33;20.00;99.90
21090;DHT22;10703;51.020;6.128;2022-07-31T00:45:00;20.00;99.90
21090;DHT22;10703;51.020;6.128;2022-07-31T00:47:27;19.90;99.90
21090;DHT22;10703;51.020;6.128;2022-07-31T00:49:55;19.50;99.90
21090;DHT22;10703;51.020;6.128;2022-07-31T00:52:21;19.60;99.90
21090;DHT22;10703;51.020;6.128;2022-07-31T00:54:48;19.60;99.90
21090;DHT22;10703;51.020;6.128;2022-07-31T00:57:15;19.60;99.90
21090;DHT22;10703;51.020;6.128;2022-07-31T00:59:42;19.60;99.90
21090;DHT22;10703;51.020;6.128;2022-07-31T01:02:09;19.60;99.90
21090;DHT22;10703;51.020;6.128;2022-07-31T01:04:36;19.60;99.90
21090;DHT22;10703;51.020;6.128;2022-07-31T01:07:07;19.60;99.90
21090;DHT22;10703;51.020;6.128;2022-07-31T01:09:34;19.80;99.90
21090;DHT22;10703;51.020;6.128;2022-07-31T01:12:24;20.00;99.90
21090;DHT22;10703;51.020;6.128;2022-07-31T01:14:56;19.90;99.90
21090;DHT22;10703;51.020;6.128;2022-07-31T01:17:26;19.90;99.90
21090;DHT22;10703;51.020;6.128;2022-07-31T01:19:55;19.90;99.90
21090;DHT22;10703;51.020;6.128;2022-07-31T01:22:55;19.70;99.90
21090;DHT22;10703;51.020;6.128;2022-07-31T01:25:58;19.60;99.90
21090;DHT22;10703;51.020;6.128;2022-07-31T01:28:58;19.60;99.90
21090;DHT22;10703;51.020;6.128;2022-07-31T01:31:45;19.60;99.90
21090;DHT22;10703;51.020;6.128;2022-07-31T01:37:16;19.70;99.90
21090;DHT22;10703;51.020;6.128;2022-07-31T01:39:50;19.80;99.90
21090;DHT22;10703;51.020;6.128;2022-07-31T01:42:19;19.80;99.90
21090;DHT22;10703;51.020;6.128;2022-07-31T01:44:52;19.90;99.90
21090;DHT22;10703;51.020;6.128;2022-07-31T01:47:20;19.90;99.90
21090;DHT22;10703;51.020;6.128;2022-07-31T01:49:49;19.90;99.90
21090;DHT22;10703;51.020;6.128;2022-07-31T01:52:18;19.90;99.90
21090;DHT22;10703;51.020;6.128;2022-07-31T01:54:46;19.90;99.90
21090;DHT22;10703;51.020;6.128;2022-07-31T01:57:14;20.00;99.90
21090;DHT22;10703;51.020;6.128;2022-07-31T01:59:45;19.90;99.90
21090;DHT22;10703;51.020;6.128;2022-07-31T02:02:14;20.00;99.90
21090;DHT22;10703;51.020;6.128;2022-07-31T02:04:42;20.00;99.90
21090;DHT22;10703;51.020;6.128;2022-07-31T02:07:12;20.10;99.90
21090;DHT22;10703;51.020;6.128;2022-07-31T02:09:42;20.00;99.90
21090;DHT22;10703;51.020;6.128;2022-07-31T02:12:25;20.00;99.90
21090;DHT22;10703;51.020;6.128;2022-07-31T02:15:05;20.10;99.90
21090;DHT22;10703;51.020;6.128;2022-07-31T02:17:33;20.00;99.90
21090;DHT22;10703;51.020;6.128;2022-07-31T02:20:01;20.00;99.90
21090;DHT22;10703;51.020;6.128;2022-07-31T02:22:31;20.00;99.90
21090;DHT22;10703;51.020;6.128;2022-07-31T02:24:58;20.00;99.90
21090;DHT22;10703;51.020;6.128;2022-07-31T02:27:25;19.90;99.90
21090;DHT22;10703;51.020;6.128;2022-07-31T02:30:13;20.00;99.90
21090;DHT22;10703;51.020;6.128;2022-07-31T02:32:44;20.10;99.90
21090;DHT22;10703;51.020;6.128;2022-07-31T02:35:12;20.00;99.90
21090;DHT22;10703;51.020;6.128;2022-07-31T02:37:41;20.00;99.90
21090;DHT22;10703;51.020;6.128;2022-07-31T02:40:10;19.90;99.90
21090;DHT22;10703;51.020;6.128;2022-07-31T02:42:39;19.90;99.90
21090;DHT22;10703;51.020;6.128;2022-07-31T02:45:08;19.90;99.90
21090;DHT22;10703;51.020;6.128;2022-07-31T02:47:36;19.90;99.90
21090;DHT22;10703;51.020;6.128;2022-07-31T02:50:04;19.90;99.90
21090;DHT22;10703;51.020;6.128;2022-07-31T02:52:32;19.70;99.90
21090;DHT22;10703;51.020;6.128;2022-07-31T02:54:59;19.70;99.90
21090;DHT22;10703;51.020;6.128;2022-07-31T02:57:27;19.80;99.90
21090;DHT22;10703;51.020;6.128;2022-07-31T02:59:53;19.70;99.90
21090;DHT22;10703;51.020;6.128;2022-07-31T03:02:20;19.60;99.90
21090;DHT22;10703;51.020;6.128;2022-07-31T03:04:47;19.50;99.90
21090;DHT22;10703;51.020;6.128;2022-07-31T03:07:13;19.50;99.90
21090;DHT22;10703;51.020;6.128;2022-07-31T03:09:42;19.60;99.90
21090;DHT22;10703;51.020;6.128;2022-07-31T03:12:09;19.60;99.90
21090;DHT22;10703;51.020;6.128;2022-07-31T03:14:36;19.60;99.90
21090;DHT22;10703;51.020;6.128;2022-07-31T03:17:03;19.60;99.90
21090;DHT22;10703;51.020;6.128;2022-07-31T03:19:30;19.60;99.90
21090;DHT22;10703;51.020;6.128;2022-07-31T03:21:58;19.50;99.90
21090;DHT22;10703;51.020;6.128;2022-07-31T03:24:26;19.50;99.90
21090;DHT22;10703;51.020;6.128;2022-07-31T03:26:52;19.40;99.90
21090;DHT22;10703;51.020;6.128;2022-07-31T03:29:19;19.40;99.90
21090;DHT22;10703;51.020;6.128;2022-07-31T03:32:06;19.40;99.90
21090;DHT22;10703;51.020;6.128;2022-07-31T03:34:33;19.30;99.90
21090;DHT22;10703;51.020;6.128;2022-07-31T03:36:59;19.30;99.90
21090;DHT22;10703;51.020;6.128;2022-07-31T03:39:26;19.20;99.90
21090;DHT22;10703;51.020;6.128;2022-07-31T03:41:54;19.10;99.90
21090;DHT22;10703;51.020;6.128;2022-07-31T03:44:22;19.20;99.90
21090;DHT22;10703;51.020;6.128;2022-07-31T03:46:50;19.10;99.90
21090;DHT22;10703;51.020;6.128;2022-07-31T03:49:17;19.10;99.90
21090;DHT22;10703;51.020;6.128;2022-07-31T03:51:44;19.20;99.90
21090;DHT22;10703;51.020;6.128;2022-07-31T03:54:10;19.10;99.90
21090;DHT22;10703;51.020;6.128;2022-07-31T03:56:38;19.10;99.90
21090;DHT22;10703;51.020;6.128;2022-07-31T03:59:10;19.00;99.90
21090;DHT22;10703;51.020;6.128;2022-07-31T04:01:39;19.00;99.90
21090;DHT22;10703;51.020;6.128;2022-07-31T04:04:24;18.90;99.90
21090;DHT22;10703;51.020;6.128;2022-07-31T04:06:51;19.00;99.90
21090;DHT22;10703;51.020;6.128;2022-07-31T04:09:18;18.90;99.90
21090;DHT22;10703;51.020;6.128;2022-07-31T04:11:45;18.90;99.90
21090;DHT22;10703;51.020;6.128;2022-07-31T04:14:12;18.90;99.90
21090;DHT22;10703;51.020;6.128;2022-07-31T04:16:39;19.10;99.90
21090;DHT22;10703;51.020;6.128;2022-07-31T04:19:05;19.00;99.90
21090;DHT22;10703;51.020;6.128;2022-07-31T04:21:32;19.00;99.90
21090;DHT22;10703;51.020;6.128;2022-07-31T04:23:59;19.00;99.90
21090;DHT22;10703;51.020;6.128;2022-07-31T04:26:27;19.00;99.90
21090;DHT22;10703;51.020;6.128;2022-07-31T04:28:54;19.00;99.90
21090;DHT22;10703;51.020;6.128;2022-07-31T04:31:20;18.90;99.90
21090;DHT22;10703;51.020;6.128;2022-07-31T04:33:47;19.00;99.90
21090;DHT22;10703;51.020;6.128;2022-07-31T04:36:21;19.00;99.90
21090;DHT22;10703;51.020;6.128;2022-07-31T04:38:57;19.10;99.90
21090;DHT22;10703;51.020;6.128;2022-07-31T04:41:24;19.10;99.90
21090;DHT22;10703;51.020;6.128;2022-07-31T04:43:50;19.10;99.90
21090;DHT22;10703;51.020;6.128;2022-07-31T04:46:17;19.00;99.90
21090;DHT22;10703;51.020;6.128;2022-07-31T04:48:44;19.00;99.90
21090;DHT22;10703;51.020;6.128;2022-07-31T04:51:18;19.00;99.90
21090;DHT22;10703;51.020;6.128;2022-07-31T04:53:46;18.90;99.90
21090;DHT22;10703;51.020;6.128;2022-07-31T04:56:13;19.00;99.90
21090;DHT22;10703;51.020;6.128;2022-07-31T04:59:00;18.90;99.90
21090;DHT22;10703;51.020;6.128;2022-07-31T05:01:27;19.00;99.90
21090;DHT22;10703;51.020;6.128;2022-07-31T05:03:54;18.90;99.90
21090;DHT22;10703;51.020;6.128;2022-07-31T05:06:20;19.00;99.90
21090;DHT22;10703;51.020;6.128;2022-07-31T05:08:47;19.00;99.90
21090;DHT22;10703;51.020;6.128;2022-07-31T05:11:14;18.90;99.90
21090;DHT22;10703;51.020;6.128;2022-07-31T05:13:55;18.90;99.90
21090;DHT22;10703;51.020;6.128;2022-07-31T05:16:23;18.90;99.90
21090;DHT22;10703;51.020;6.128;2022-07-31T05:18:50;19.10;99.90
21090;DHT22;10703;51.020;6.128;2022-07-31T05:21:20;19.10;99.90
21090;DHT22;10703;51.020;6.128;2022-07-31T05:23:49;19.10;99.90
21090;DHT22;10703;51.020;6.128;2022-07-31T05:26:16;19.10;99.90
21090;DHT22;10703;51.020;6.128;2022-07-31T05:28:44;19.10;99.90
21090;DHT22;10703;51.020;6.128;2022-07-31T05:31:12;19.20;99.90
21090;DHT22;10703;51.020;6.128;2022-07-31T05:33:39;19.20;99.90
21090;DHT22;10703;51.020;6.128;2022-07-31T05:36:05;19.30;99.90
21090;DHT22;10703;51.020;6.128;2022-07-31T05:38:32;19.20;99.90
21090;DHT22;10703;51.020;6.128;2022-07-31T05:40:59;19.20;99.90
21090;DHT22;10703;51.020;6.128;2022-07-31T05:43:26;19.20;99.90
21090;DHT22;10703;51.020;6.128;2022-07-31T05:45:53;19.30;99.90
21090;DHT22;10703;51.020;6.128;2022-07-31T05:48:20;19.20;99.90
21090;DHT22;10703;51.020;6.128;2022-07-31T05:50:48;19.20;99.90
21090;DHT22;10703;51.020;6.128;2022-07-31T05:53:15;19.20;99.90
21090;DHT22;10703;51.020;6.128;2022-07-31T05:55:44;19.20;99.90
21090;DHT22;10703;51.020;6.128;2022-07-31T05:58:12;19.10;99.90
21090;DHT22;10703;51.020;6.128;2022-07-31T06:00:44;19.10;99.90
21090;DHT22;10703;51.020;6.128;2022-07-31T06:03:12;19.10;99.90
21090;DHT22;10703;51.020;6.128;2022-07-31T06:05:39;19.10;99.90
21090;DHT22;10703;51.020;6.128;2022-07-31T06:08:06;19.10;99.90
21090;DHT22;10703;51.020;6.128;2022-07-31T06:10:36;19.10;99.90
21090;DHT22;10703;51.020;6.128;2022-07-31T06:13:04;19.10;99.90
21090;DHT22;10703;51.020;6.128;2022-07-31T06:15:31;19.20;99.90
21090;DHT22;10703;51.020;6.128;2022-07-31T06:18:02;19.30;99.90
21090;DHT22;10703;51.020;6.128;2022-07-31T06:20:29;19.10;99.90
21090;DHT22;10703;51.020;6.128;2022-07-31T06:22:56;19.20;99.90
21090;DHT22;10703;51.020;6.128;2022-07-31T06:25:23;19.20;99.90
21090;DHT22;10703;51.020;6.128;2022-07-31T06:27:55;19.20;99.90
21090;DHT22;10703;51.020;6.128;2022-07-31T06:30:26;19.20;99.90
21090;DHT22;10703;51.020;6.128;2022-07-31T06:32:53;19.20;99.90
21090;DHT22;10703;51.020;6.128;2022-07-31T06:35:19;19.20;99.90
21090;DHT22;10703;51.020;6.128;2022-07-31T06:37:46;19.30;99.90
21090;DHT22;10703;51.020;6.128;2022-07-31T06:40:13;19.30;99.90
21090;DHT22;10703;51.020;6.128;2022-07-31T06:42:40;19.30;99.90
21090;DHT22;10703;51.020;6.128;2022-07-31T06:45:07;19.20;99.90
21090;DHT22;10703;51.020;6.128;2022-07-31T06:47:34;19.10;99.90
21090;DHT22;10703;51.020;6.128;2022-07-31T06:50:01;19.10;99.90
21090;DHT22;10703;51.020;6.128;2022-07-31T06:52:27;19.20;99.90
21090;DHT22;10703;51.020;6.128;2022-07-31T06:54:54;19.50;99.90
21090;DHT22;10703;51.020;6.128;2022-07-31T06:57:21;19.60;99.90
21090;DHT22;10703;51.020;6.128;2022-07-31T06:59:47;19.80;99.90
21090;DHT22;10703;51.020;6.128;2022-07-31T07:02:15;20.00;99.90
21090;DHT22;10703;51.020;6.128;2022-07-31T07:04:42;20.10;99.90
21090;DHT22;10703;51.020;6.128;2022-07-31T07:07:29;20.30;99.90
21090;DHT22;10703;51.020;6.128;2022-07-31T07:09:57;20.10;99.90
21090;DHT22;10703;51.020;6.128;2022-07-31T07:12:24;20.40;99.90
21090;DHT22;10703;51.020;6.128;2022-07-31T07:14:52;20.50;99.90
21090;DHT22;10703;51.020;6.128;2022-07-31T07:17:19;20.70;99.90
21090;DHT22;10703;51.020;6.128;2022-07-31T07:19:45;20.70;99.90
21090;DHT22;10703;51.020;6.128;2022-07-31T07:22:20;20.70;99.90
21090;DHT22;10703;51.020;6.128;2022-07-31T07:24:58;20.90;99.90
21090;DHT22;10703;51.020;6.128;2022-07-31T07:27:25;21.10;99.90
21090;DHT22;10703;51.020;6.128;2022-07-31T07:29:52;21.40;99.90
21090;DHT22;10703;51.020;6.128;2022-07-31T07:32:18;21.40;99.90
21090;DHT22;10703;51.020;6.128;2022-07-31T07:34:45;21.50;99.90
21090;DHT22;10703;51.020;6.128;2022-07-31T07:37:11;21.60;99.90
21090;DHT22;10703;51.020;6.128;2022-07-31T07:39:38;21.40;99.90
21090;DHT22;10703;51.020;6.128;2022-07-31T07:42:05;21.70;99.90
21090;DHT22;10703;51.020;6.128;2022-07-31T07:44:32;21.70;99.90
21090;DHT22;10703;51.020;6.128;2022-07-31T07:46:59;21.90;99.90
21090;DHT22;10703;51.020;6.128;2022-07-31T07:49:26;22.00;99.90
21090;DHT22;10703;51.020;6.128;2022-07-31T07:51:52;22.00;99.90
21090;DHT22;10703;51.020;6.128;2022-07-31T07:54:26;22.10;99.90
21090;DHT22;10703;51.020;6.128;2022-07-31T07:56:52;22.10;99.90
21090;DHT22;10703;51.020;6.128;2022-07-31T07:59:20;21.90;99.90
21090;DHT22;10703;51.020;6.128;2022-07-31T08:01:47;21.80;99.90
21090;DHT22;10703;51.020;6.128;2022-07-31T08:04:13;21.70;99.90
21090;DHT22;10703;51.020;6.128;2022-07-31T08:06:40;21.60;99.90
21090;DHT22;10703;51.020;6.128;2022-07-31T08:09:07;21.60;99.90
21090;DHT22;10703;51.020;6.128;2022-07-31T08:11:33;21.80;99.90
21090;DHT22;10703;51.020;6.128;2022-07-31T08:14:00;21.90;99.90
21090;DHT22;10703;51.020;6.128;2022-07-31T08:16:27;22.20;99.90
21090;DHT22;10703;51.020;6.128;2022-07-31T08:18:53;22.00;99.90
21090;DHT22;10703;51.020;6.128;2022-07-31T08:21:20;22.30;99.90
21090;DHT22;10703;51.020;6.128;2022-07-31T08:23:47;22.40;99.90
21090;DHT22;10703;51.020;6.128;2022-07-31T08:26:13;22.30;99.90
21090;DHT22;10703;51.020;6.128;2022-07-31T08:28:40;22.30;99.90
21090;DHT22;10703;51.020;6.128;2022-07-31T08:31:15;22.60;99.90
21090;DHT22;10703;51.020;6.128;2022-07-31T08:33:42;22.50;99.90
21090;DHT22;10703;51.020;6.128;2022-07-31T08:36:09;22.50;99.90
21090;DHT22;10703;51.020;6.128;2022-07-31T08:38:35;22.30;99.90
21090;DHT22;10703;51.020;6.128;2022-07-31T08:41:02;22.30;99.90
21090;DHT22;10703;51.020;6.128;2022-07-31T08:43:29;22.30;99.90
21090;DHT22;10703;51.020;6.128;2022-07-31T08:46:17;22.20;99.90
21090;DHT22;10703;51.020;6.128;2022-07-31T08:48:44;22.20;99.90
21090;DHT22;10703;51.020;6.128;2022-07-31T08:51:12;22.30;99.90
21090;DHT22;10703;51.020;6.128;2022-07-31T08:53:41;22.00;99.90
21090;DHT22;10703;51.020;6.128;2022-07-31T08:56:09;22.00;99.90
21090;DHT22;10703;51.020;6.128;2022-07-31T08:58:35;22.20;99.90
21090;DHT22;10703;51.020;6.128;2022-07-31T09:01:06;22.70;99.90
21090;DHT22;10703;51.020;6.128;2022-07-31T09:03:34;23.50;99.90
21090;DHT22;10703;51.020;6.128;2022-07-31T09:06:02;24.00;99.90
21090;DHT22;10703;51.020;6.128;2022-07-31T09:08:33;24.30;99.90
21090;DHT22;10703;51.020;6.128;2022-07-31T09:11:08;24.10;99.90
21090;DHT22;10703;51.020;6.128;2022-07-31T09:13:35;24.80;99.90
21090;DHT22;10703;51.020;6.128;2022-07-31T09:16:02;25.00;99.90
21090;DHT22;10703;51.020;6.128;2022-07-31T09:18:30;24.80;99.90
21090;DHT22;10703;51.020;6.128;2022-07-31T09:21:00;25.30;99.90
21090;DHT22;10703;51.020;6.128;2022-07-31T09:23:28;25.50;99.90
21090;DHT22;10703;51.020;6.128;2022-07-31T09:26:03;25.40;99.90
21090;DHT22;10703;51.020;6.128;2022-07-31T09:28:34;25.60;99.90
21090;DHT22;10703;51.020;6.128;2022-07-31T09:31:04;25.20;99.90
21090;DHT22;10703;51.020;6.128;2022-07-31T09:33:31;25.20;99.90
21090;DHT22;10703;51.020;6.128;2022-07-31T09:35:58;25.10;99.90
21090;DHT22;10703;51.020;6.128;2022-07-31T09:38:34;25.20;99.90
21090;DHT22;10703;51.020;6.128;2022-07-31T09:44:01;25.50;99.90
21090;DHT22;10703;51.020;6.128;2022-07-31T09:46:43;25.40;99.90
21090;DHT22;10703;51.020;6.128;2022-07-31T09:49:11;25.10;99.90
21090;DHT22;10703;51.020;6.128;2022-07-31T09:51:42;25.50;99.90
21090;DHT22;10703;51.020;6.128;2022-07-31T09:54:23;25.20;99.90
21090;DHT22;10703;51.020;6.128;2022-07-31T09:56:50;26.10;99.90
21090;DHT22;10703;51.020;6.128;2022-07-31T09:59:17;27.40;99.90
21090;DHT22;10703;51.020;6.128;2022-07-31T10:01:46;27.40;99.90
21090;DHT22;10703;51.020;6.128;2022-07-31T10:04:18;27.50;99.90
21090;DHT22;10703;51.020;6.128;2022-07-31T10:06:50;27.20;99.90
21090;DHT22;10703;51.020;6.128;2022-07-31T10:09:19;26.80;99.90
21090;DHT22;10703;51.020;6.128;2022-07-31T10:11:48;26.60;99.90
21090;DHT22;10703;51.020;6.128;2022-07-31T10:14:22;26.60;99.90
21090;DHT22;10703;51.020;6.128;2022-07-31T10:16:53;26.80;99.90
21090;DHT22;10703;51.020;6.128;2022-07-31T10:19:20;26.60;99.90
21090;DHT22;10703;51.020;6.128;2022-07-31T10:21:56;26.60;99.90
21090;DHT22;10703;51.020;6.128;2022-07-31T10:24:25;26.70;99.90
21090;DHT22;10703;51.020;6.128;2022-07-31T10:26:56;27.50;99.90
21090;DHT22;10703;51.020;6.128;2022-07-31T10:29:27;27.70;99.90
21090;DHT22;10703;51.020;6.128;2022-07-31T10:31:58;26.90;99.90
21090;DHT22;10703;51.020;6.128;2022-07-31T10:34:25;27.40;99.90
21090;DHT22;10703;51.020;6.128;2022-07-31T10:36:55;27.90;99.90
21090;DHT22;10703;51.020;6.128;2022-07-31T10:39:34;27.10;99.90
21090;DHT22;10703;51.020;6.128;2022-07-31T10:45:08;26.30;99.90
21090;DHT22;10703;51.020;6.128;2022-07-31T10:47:35;26.60;99.90
21090;DHT22;10703;51.020;6.128;2022-07-31T10:50:03;26.60;99.90
21090;DHT22;10703;51.020;6.128;2022-07-31T10:52:31;26.60;99.90
21090;DHT22;10703;51.020;6.128;2022-07-31T10:54:59;26.80;99.90
21090;DHT22;10703;51.020;6.128;2022-07-31T10:57:32;27.00;99.90
21090;DHT22;10703;51.020;6.128;2022-07-31T11:00:12;27.10;99.90
21090;DHT22;10703;51.020;6.128;2022-07-31T11:02:39;26.50;99.90
21090;DHT22;10703;51.020;6.128;2022-07-31T11:05:10;26.70;99.90
21090;DHT22;10703;51.020;6.128;2022-07-31T11:07:43;27.20;99.90
21090;DHT22;10703;51.020;6.128;2022-07-31T11:10:12;27.90;99.90
21090;DHT22;10703;51.020;6.128;2022-07-31T11:12:40;28.10;99.90
21090;DHT22;10703;51.020;6.128;2022-07-31T11:15:27;28.20;99.90
21090;DHT22;10703;51.020;6.128;2022-07-31T11:17:54;27.60;99.90
21090;DHT22;10703;51.020;6.128;2022-07-31T11:20:42;27.40;99.90
21090;DHT22;10703;51.020;6.128;2022-07-31T11:23:13;27.40;99.90
21090;DHT22;10703;51.020;6.128;2022-07-31T11:25:44;28.20;99.90
21090;DHT22;10703;51.020;6.128;2022-07-31T11:28:16;29.10;99.90
21090;DHT22;10703;51.020;6.128;2022-07-31T11:30:51;28.60;99.90
21090;DHT22;10703;51.020;6.128;2022-07-31T11:36:11;27.50;99.90
21090;DHT22;10703;51.020;6.128;2022-07-31T11:38:40;27.70;99.90
21090;DHT22;10703;51.020;6.128;2022-07-31T11:41:07;27.70;99.90
21090;DHT22;10703;51.020;6.128;2022-07-31T11:43:36;27.70;99.90
21090;DHT22;10703;51.020;6.128;2022-07-31T11:46:05;27.70;99.90
21090;DHT22;10703;51.020;6.128;2022-07-31T11:48:37;28.00;99.90
21090;DHT22;10703;51.020;6.128;2022-07-31T11:51:16;28.40;99.90
21090;DHT22;10703;51.020;6.128;2022-07-31T11:53:44;28.90;99.90
21090;DHT22;10703;51.020;6.128;2022-07-31T11:56:20;28.90;99.90
21090;DHT22;10703;51.020;6.128;2022-07-31T11:58:55;29.00;99.90
21090;DHT22;10703;51.020;6.128;2022-07-31T12:01:26;28.90;99.90
21090;DHT22;10703;51.020;6.128;2022-07-31T12:03:55;28.30;99.90
21090;DHT22;10703;51.020;6.128;2022-07-31T12:06:31;28.60;99.90
21090;DHT22;10703;51.020;6.128;2022-07-31T12:09:02;28.50;99.90
21090;DHT22;10703;51.020;6.128;2022-07-31T12:11:28;27.40;99.90
21090;DHT22;10703;51.020;6.128;2022-07-31T12:13:55;27.40;99.90
21090;DHT22;10703;51.020;6.128;2022-07-31T12:16:22;27.50;99.90
21090;DHT22;10703;51.020;6.128;2022-07-31T12:18:52;27.30;99.90
21090;DHT22;10703;51.020;6.128;2022-07-31T12:21:33;27.10;99.90
21090;DHT22;10703;51.020;6.128;2022-07-31T12:24:01;27.10;99.90
21090;DHT22;10703;51.020;6.128;2022-07-31T12:26:31;26.90;99.90
21090;DHT22;10703;51.020;6.128;2022-07-31T12:28:59;27.00;99.90
21090;DHT22;10703;51.020;6.128;2022-07-31T12:31:28;27.40;99.90
21090;DHT22;10703;51.020;6.128;2022-07-31T12:33:55;27.60;99.90
21090;DHT22;10703;51.020;6.128;2022-07-31T12:36:22;28.00;99.90
21090;DHT22;10703;51.020;6.128;2022-07-31T12:39:01;28.90;99.90
21090;DHT22;10703;51.020;6.128;2022-07-31T12:41:29;29.40;99.90
21090;DHT22;10703;51.020;6.128;2022-07-31T12:44:12;29.70;99.90
21090;DHT22;10703;51.020;6.128;2022-07-31T12:46:40;29.30;99.90
21090;DHT22;10703;51.020;6.128;2022-07-31T12:49:07;28.90;99.90
21090;DHT22;10703;51.020;6.128;2022-07-31T12:51:34;29.00;99.90
21090;DHT22;10703;51.020;6.128;2022-07-31T12:54:14;28.50;99.90
21090;DHT22;10703;51.020;6.128;2022-07-31T12:56:41;28.00;99.90
21090;DHT22;10703;51.020;6.128;2022-07-31T12:59:08;27.80;99.90
21090;DHT22;10703;51.020;6.128;2022-07-31T13:01:36;28.40;99.90
21090;DHT22;10703;51.020;6.128;2022-07-31T13:04:03;28.50;99.90
21090;DHT22;10703;51.020;6.128;2022-07-31T13:06:44;28.40;99.90
21090;DHT22;10703;51.020;6.128;2022-07-31T13:09:10;27.90;99.90
21090;DHT22;10703;51.020;6.128;2022-07-31T13:11:37;28.00;99.90
21090;DHT22;10703;51.020;6.128;2022-07-31T13:14:14;28.40;99.90
21090;DHT22;10703;51.020;6.128;2022-07-31T13:16:41;28.00;99.90
21090;DHT22;10703;51.020;6.128;2022-07-31T13:19:08;28.20;99.90
21090;DHT22;10703;51.020;6.128;2022-07-31T13:21:34;28.60;99.90
21090;DHT22;10703;51.020;6.128;2022-07-31T13:24:16;28.60;99.90
21090;DHT22;10703;51.020;6.128;2022-07-31T13:26:43;27.90;99.90
21090;DHT22;10703;51.020;6.128;2022-07-31T13:29:10;27.50;99.90
21090;DHT22;10703;51.020;6.128;2022-07-31T13:31:37;27.90;99.90
21090;DHT22;10703;51.020;6.128;2022-07-31T13:34:05;28.30;99.90
21090;DHT22;10703;51.020;6.128;2022-07-31T13:36:31;28.00;99.90
21090;DHT22;10703;51.020;6.128;2022-07-31T13:39:07;27.70;99.90
21090;DHT22;10703;51.020;6.128;2022-07-31T13:41:34;27.50;99.90
21090;DHT22;10703;51.020;6.128;2022-07-31T13:44:04;27.40;99.90
21090;DHT22;10703;51.020;6.128;2022-07-31T13:46:31;27.40;99.90
21090;DHT22;10703;51.020;6.128;2022-07-31T13:48:57;27.60;99.90
21090;DHT22;10703;51.020;6.128;2022-07-31T13:51:29;27.40;99.90
21090;DHT22;10703;51.020;6.128;2022-07-31T13:53:56;28.20;99.90
21090;DHT22;10703;51.020;6.128;2022-07-31T13:56:23;28.60;99.90
21090;DHT22;10703;51.020;6.128;2022-07-31T13:59:08;29.00;99.90
21090;DHT22;10703;51.020;6.128;2022-07-31T14:01:37;28.50;99.90
21090;DHT22;10703;51.020;6.128;2022-07-31T14:04:23;28.80;99.90
21090;DHT22;10703;51.020;6.128;2022-07-31T14:06:50;29.20;99.90
21090;DHT22;10703;51.020;6.128;2022-07-31T14:09:18;29.10;99.90
21090;DHT22;10703;51.020;6.128;2022-07-31T14:11:44;29.00;99.90
21090;DHT22;10703;51.020;6.128;2022-07-31T14:14:13;28.90;99.90
21090;DHT22;10703;51.020;6.128;2022-07-31T14:16:48;28.40;99.90
21090;DHT22;10703;51.020;6.128;2022-07-31T14:19:14;28.50;99.90
21090;DHT22;10703;51.020;6.128;2022-07-31T14:21:41;28.40;99.90
21090;DHT22;10703;51.020;6.128;2022-07-31T14:24:23;29.10;99.90
21090;DHT22;10703;51.020;6.128;2022-07-31T14:26:50;29.60;99.90
21090;DHT22;10703;51.020;6.128;2022-07-31T14:29:17;29.40;99.90
21090;DHT22;10703;51.020;6.128;2022-07-31T14:31:44;29.30;99.90
21090;DHT22;10703;51.020;6.128;2022-07-31T14:34:11;28.90;99.90
21090;DHT22;10703;51.020;6.128;2022-07-31T14:36:37;28.00;99.90
21090;DHT22;10703;51.020;6.128;2022-07-31T14:39:04;28.10;99.90
21090;DHT22;10703;51.020;6.128;2022-07-31T14:41:31;27.70;99.90
21090;DHT22;10703;51.020;6.128;2022-07-31T14:43:57;27.70;99.90
21090;DHT22;10703;51.020;6.128;2022-07-31T14:46:24;27.80;99.90
21090;DHT22;10703;51.020;6.128;2022-07-31T14:48:50;27.60;99.90
21090;DHT22;10703;51.020;6.128;2022-07-31T14:51:18;27.50;99.90
21090;DHT22;10703;51.020;6.128;2022-07-31T14:53:45;28.00;99.90
21090;DHT22;10703;51.020;6.128;2022-07-31T14:56:12;28.30;99.90
21090;DHT22;10703;51.020;6.128;2022-07-31T14:58:43;28.40;99.90
21090;DHT22;10703;51.020;6.128;2022-07-31T15:01:24;28.00;99.90
21090;DHT22;10703;51.020;6.128;2022-07-31T15:03:56;27.20;99.90
21090;DHT22;10703;51.020;6.128;2022-07-31T15:06:23;27.00;99.90
21090;DHT22;10703;51.020;6.128;2022-07-31T15:09:09;27.20;99.90
21090;DHT22;10703;51.020;6.128;2022-07-31T15:11:36;27.50;99.90
21090;DHT22;10703;51.020;6.128;2022-07-31T15:14:23;27.50;99.90
21090;DHT22;10703;51.020;6.128;2022-07-31T15:16:50;27.20;99.90
21090;DHT22;10703;51.020;6.128;2022-07-31T15:19:16;27.10;99.90
21090;DHT22;10703;51.020;6.128;2022-07-31T15:21:43;26.90;99.90
21090;DHT22;10703;51.020;6.128;2022-07-31T15:24:31;27.40;99.90
21090;DHT22;10703;51.020;6.128;2022-07-31T15:26:58;28.10;99.90
21090;DHT22;10703;51.020;6.128;2022-07-31T15:29:25;27.50;99.90
21090;DHT22;10703;51.020;6.128;2022-07-31T15:32:11;27.20;99.90
21090;DHT22;10703;51.020;6.128;2022-07-31T15:34:38;27.00;99.90
21090;DHT22;10703;51.020;6.128;2022-07-31T15:37:05;26.90;99.90
21090;DHT22;10703;51.020;6.128;2022-07-31T15:39:32;26.70;99.90
21090;DHT22;10703;51.020;6.128;2022-07-31T15:41:59;26.80;99.90
21090;DHT22;10703;51.020;6.128;2022-07-31T15:44:27;27.10;99.90
21090;DHT22;10703;51.020;6.128;2022-07-31T15:46:53;27.70;99.90
21090;DHT22;10703;51.020;6.128;2022-07-31T15:49:20;27.40;99.90
21090;DHT22;10703;51.020;6.128;2022-07-31T15:51:47;27.60;99.90
21090;DHT22;10703;51.020;6.128;2022-07-31T15:54:13;28.40;99.90
21090;DHT22;10703;51.020;6.128;2022-07-31T15:56:40;28.50;99.90